createdAt,value
2019-05-11T00:00:59.223Z,8.80
2019-05-11T00:01:59.265Z,8.20
2019-05-11T00:02:59.302Z,6.30
2019-05-11T00:03:59.258Z,5.70
2019-05-11T00:04:59.281Z,8.30
2019-05-11T00:05:59.332Z,6.10
2019-05-11T00:06:59.283Z,6.90
2019-05-11T00:07:59.329Z,5.70
2019-05-11T00:08:59.330Z,4.70
2019-05-11T00:09:59.309Z,4.70
2019-05-11T00:10:59.350Z,6.20
2019-05-11T00:11:59.392Z,6.70
2019-05-11T00:12:59.373Z,5.80
2019-05-11T00:13:59.394Z,4.80
2019-05-11T00:14:59.433Z,5.80
2019-05-11T00:15:59.394Z,5.50
2019-05-11T00:16:59.407Z,5.00
2019-05-11T00:17:59.517Z,5.50
2019-05-11T00:18:59.444Z,5.20
2019-05-11T00:19:59.463Z,4.40
2019-05-11T00:20:59.494Z,4.30
2019-05-11T00:21:59.471Z,5.90
2019-05-11T00:22:59.496Z,5.30
2019-05-11T00:23:59.536Z,4.60
2019-05-11T00:24:59.495Z,7.20
2019-05-11T00:25:59.516Z,4.80
2019-05-11T00:26:59.529Z,5.50
2019-05-11T00:27:59.523Z,5.80
2019-05-11T00:28:59.599Z,6.40
2019-05-11T00:29:59.547Z,5.30
2019-05-11T00:30:59.601Z,7.40
2019-05-11T00:31:59.595Z,5.30
2019-05-11T00:32:59.630Z,5.70
2019-05-11T00:33:59.615Z,7.00
2019-05-11T00:34:59.661Z,5.50
2019-05-11T00:35:59.670Z,6.40
2019-05-11T00:36:59.649Z,5.80
2019-05-11T00:37:59.672Z,5.00
2019-05-11T00:38:59.697Z,5.20
2019-05-11T00:40:13.271Z,5.40
2019-05-11T00:40:59.715Z,8.10
2019-05-11T00:41:59.699Z,6.80
2019-05-11T00:42:59.684Z,7.10
2019-05-11T00:43:59.684Z,6.00
2019-05-11T00:44:59.680Z,5.60
2019-05-11T00:45:59.700Z,5.60
2019-05-11T00:46:59.729Z,5.60
2019-05-11T00:47:59.723Z,6.00
2019-05-11T00:48:59.689Z,6.20
2019-05-11T00:49:59.701Z,6.00
2019-05-11T00:50:59.692Z,5.20
2019-05-11T00:51:59.702Z,6.10
2019-05-11T00:52:59.711Z,4.70
2019-05-11T00:53:59.716Z,4.90
2019-05-11T00:54:59.673Z,5.20
2019-05-11T00:55:59.698Z,3.90
2019-05-11T00:56:59.702Z,4.00
2019-05-11T00:57:59.712Z,5.20
2019-05-11T00:58:59.704Z,6.70
2019-05-11T00:59:59.727Z,5.80
2019-05-11T01:00:59.681Z,6.20
2019-05-11T01:01:59.690Z,5.40
2019-05-11T01:02:59.701Z,6.00
2019-05-11T01:03:59.684Z,4.80
2019-05-11T01:04:59.703Z,4.70
2019-05-11T01:05:59.693Z,5.10
2019-05-11T01:06:59.691Z,4.20
2019-05-11T01:07:59.738Z,4.40
2019-05-11T01:08:59.691Z,3.90
2019-05-11T01:09:59.708Z,4.10
2019-05-11T01:10:59.725Z,4.70
2019-05-11T01:11:59.735Z,5.30
2019-05-11T01:12:59.729Z,6.70
2019-05-11T01:13:59.712Z,6.10
2019-05-11T01:14:59.681Z,8.00
2019-05-11T01:15:59.711Z,7.10
2019-05-11T01:16:59.709Z,7.70
2019-05-11T01:17:59.750Z,7.60
2019-05-11T01:18:59.734Z,8.00
2019-05-11T01:19:59.735Z,6.10
2019-05-11T01:20:59.725Z,6.20
2019-05-11T01:21:59.693Z,7.80
2019-05-11T01:22:59.722Z,9.00
2019-05-11T01:23:59.755Z,7.00
2019-05-11T01:24:59.700Z,6.20
2019-05-11T01:25:59.749Z,8.60
2019-05-11T01:26:59.740Z,7.80
2019-05-11T01:27:59.720Z,7.00
2019-05-11T01:28:59.711Z,5.80
2019-05-11T01:29:59.740Z,5.30
2019-05-11T01:30:59.706Z,4.40
2019-05-11T01:31:59.720Z,7.20
2019-05-11T01:32:59.745Z,5.40
2019-05-11T01:33:59.704Z,5.40
2019-05-11T01:34:59.745Z,6.10
2019-05-11T01:35:59.768Z,6.00
2019-05-11T01:36:59.726Z,4.10
2019-05-11T01:37:59.708Z,3.80
2019-05-11T01:38:59.761Z,5.50
2019-05-11T01:39:59.722Z,6.30
2019-05-11T01:40:59.747Z,4.20
2019-05-11T01:41:59.772Z,4.30
2019-05-11T01:42:59.748Z,4.60
2019-05-11T01:43:59.732Z,3.60
2019-05-11T01:44:59.789Z,4.50
2019-05-11T01:45:59.719Z,3.70
2019-05-11T01:46:59.742Z,3.80
2019-05-11T01:47:59.712Z,6.60
2019-05-11T01:48:59.714Z,7.00
2019-05-11T01:49:59.739Z,6.30
2019-05-11T01:50:59.781Z,4.90
2019-05-11T01:51:59.763Z,4.80
2019-05-11T01:52:59.713Z,6.20
2019-05-11T01:53:59.738Z,5.70
2019-05-11T01:54:59.725Z,6.10
2019-05-11T01:55:59.743Z,7.90
2019-05-11T01:56:59.771Z,6.00
2019-05-11T01:57:59.747Z,9.10
2019-05-11T01:58:59.729Z,7.20
2019-05-11T01:59:59.769Z,5.20
2019-05-11T02:00:59.726Z,7.00
2019-05-11T02:01:59.770Z,6.60
2019-05-11T02:02:59.724Z,5.80
2019-05-11T02:03:59.740Z,7.20
2019-05-11T02:04:59.762Z,6.80
2019-05-11T02:05:59.762Z,4.70
2019-05-11T02:06:59.749Z,5.10
2019-05-11T02:07:59.815Z,5.90
2019-05-11T02:08:59.777Z,5.90
2019-05-11T02:09:59.750Z,7.00
2019-05-11T02:11:14.883Z,8.40
2019-05-11T02:11:59.738Z,10.40
2019-05-11T02:12:59.746Z,12.70
2019-05-11T02:13:59.758Z,12.10
2019-05-11T02:14:59.794Z,9.90
2019-05-11T02:15:59.740Z,11.40
2019-05-11T02:16:59.748Z,9.80
2019-05-11T02:17:59.814Z,10.00
2019-05-11T02:18:59.747Z,7.50
2019-05-11T02:19:59.760Z,12.90
2019-05-11T02:20:59.789Z,14.50
2019-05-11T02:21:59.735Z,17.80
2019-05-11T02:22:59.777Z,36.20
2019-05-11T02:23:59.805Z,26.30
2019-05-11T02:24:59.748Z,22.50
2019-05-11T02:25:59.773Z,14.70
2019-05-11T02:26:59.796Z,13.90
2019-05-11T02:27:59.739Z,14.30
2019-05-11T02:28:59.794Z,19.50
2019-05-11T02:29:59.782Z,31.20
2019-05-11T02:30:59.751Z,27.10
2019-05-11T02:31:59.776Z,28.70
2019-05-11T02:32:59.780Z,30.90
2019-05-11T02:33:59.760Z,38.90
2019-05-11T02:34:59.766Z,31.10
2019-05-11T02:35:59.751Z,33.30
2019-05-11T02:36:59.745Z,29.50
2019-05-11T02:37:59.775Z,26.70
2019-05-11T02:38:59.798Z,29.30
2019-05-11T02:39:59.760Z,29.50
2019-05-11T02:40:59.772Z,33.30
2019-05-11T02:41:59.800Z,54.60
2019-05-11T02:42:59.764Z,46.80
2019-05-11T02:43:59.776Z,52.90
2019-05-11T02:44:59.780Z,53.10
2019-05-11T02:45:59.755Z,43.80
2019-05-11T02:46:59.784Z,43.00
2019-05-11T02:47:59.783Z,57.80
2019-05-11T02:48:59.771Z,64.60
2019-05-11T02:49:59.784Z,69.20
2019-05-11T02:50:59.757Z,79.30
2019-05-11T02:51:59.777Z,75.10
2019-05-11T02:52:59.792Z,70.70
2019-05-11T02:53:59.830Z,67.20
2019-05-11T02:54:59.763Z,74.50
2019-05-11T02:55:59.913Z,83.00
2019-05-11T02:56:59.817Z,95.10
2019-05-11T02:57:59.790Z,106.70
2019-05-11T02:58:59.808Z,115.70
2019-05-11T02:59:59.819Z,101.70
2019-05-11T03:00:59.804Z,106.80
2019-05-11T03:01:59.791Z,87.00
2019-05-11T03:02:59.818Z,70.70
2019-05-11T03:03:59.781Z,58.50
2019-05-11T03:04:59.795Z,56.80
2019-05-11T03:05:59.814Z,69.20
2019-05-11T03:06:59.767Z,73.50
2019-05-11T03:07:59.789Z,74.90
2019-05-11T03:08:59.775Z,73.10
2019-05-11T03:09:59.785Z,84.70
2019-05-11T03:10:59.820Z,72.80
2019-05-11T03:11:59.825Z,75.50
2019-05-11T03:12:59.777Z,79.30
2019-05-11T03:13:59.815Z,67.90
2019-05-11T03:14:59.763Z,60.00
2019-05-11T03:15:59.792Z,57.20
2019-05-11T03:16:59.787Z,43.50
2019-05-11T03:17:59.761Z,37.70
2019-05-11T03:18:59.801Z,28.40
2019-05-11T03:19:59.793Z,29.20
2019-05-11T03:20:59.778Z,26.80
2019-05-11T03:21:59.805Z,30.90
2019-05-11T03:22:59.816Z,30.20
2019-05-11T03:23:59.821Z,30.70
2019-05-11T03:24:59.772Z,27.70
2019-05-11T03:25:59.810Z,28.40
2019-05-11T03:26:59.799Z,26.10
2019-05-11T03:27:59.808Z,22.10
2019-05-11T03:28:59.783Z,25.10
2019-05-11T03:30:01.163Z,19.50
2019-05-11T03:30:59.839Z,19.80
2019-05-11T03:31:59.838Z,18.60
2019-05-11T03:32:59.862Z,16.10
2019-05-11T03:33:59.812Z,15.50
2019-05-11T03:34:59.786Z,14.00
2019-05-11T03:35:59.840Z,11.90
2019-05-11T03:36:59.829Z,10.40
2019-05-11T03:37:59.811Z,11.40
2019-05-11T03:38:59.868Z,10.40
2019-05-11T03:39:59.787Z,14.60
2019-05-11T03:40:59.817Z,13.20
2019-05-11T03:42:13.837Z,11.00
2019-05-11T03:42:59.811Z,11.70
2019-05-11T03:43:59.831Z,15.80
2019-05-11T03:44:59.783Z,19.80
2019-05-11T03:45:59.817Z,17.10
2019-05-11T03:46:59.829Z,26.20
2019-05-11T03:47:59.782Z,22.30
2019-05-11T03:48:59.804Z,36.70
2019-05-11T03:49:59.843Z,38.70
2019-05-11T03:50:59.840Z,41.00
2019-05-11T03:51:59.808Z,38.30
2019-05-11T03:52:59.825Z,38.90
2019-05-11T03:53:59.848Z,19.00
2019-05-11T03:54:59.791Z,14.10
2019-05-11T03:55:59.854Z,15.20
2019-05-11T03:56:59.823Z,11.50
2019-05-11T03:57:59.809Z,12.50
2019-05-11T03:58:59.836Z,12.30
2019-05-11T03:59:59.791Z,10.50
2019-05-11T04:00:59.811Z,11.70
2019-05-11T04:01:59.862Z,11.00
2019-05-11T04:02:59.792Z,10.10
2019-05-11T04:03:59.808Z,11.20
2019-05-11T04:04:59.853Z,10.30
2019-05-11T04:05:59.806Z,8.80
2019-05-11T04:06:59.805Z,8.80
2019-05-11T04:07:59.825Z,8.70
2019-05-11T04:08:59.824Z,9.40
2019-05-11T04:09:59.826Z,9.70
2019-05-11T04:10:59.860Z,8.20
2019-05-11T04:11:59.797Z,7.60
2019-05-11T04:12:59.861Z,6.70
2019-05-11T04:13:59.885Z,6.80
2019-05-11T04:14:59.836Z,9.80
2019-05-11T04:15:59.869Z,7.80
2019-05-11T04:16:59.840Z,7.60
2019-05-11T04:17:59.817Z,8.10
2019-05-11T04:18:59.865Z,7.50
2019-05-11T04:19:59.875Z,6.50
2019-05-11T04:20:59.864Z,9.50
2019-05-11T04:21:59.893Z,12.80
2019-05-11T04:22:59.867Z,19.90
2019-05-11T04:23:59.806Z,53.60
2019-05-11T04:24:59.907Z,74.60
2019-05-11T04:25:59.871Z,64.00
2019-05-11T04:26:59.864Z,36.20
2019-05-11T04:27:59.877Z,16.20
2019-05-11T04:28:59.843Z,12.40
2019-05-11T04:29:59.864Z,8.10
2019-05-11T04:30:59.885Z,10.10
2019-05-11T04:31:59.874Z,7.30
2019-05-11T04:32:59.812Z,5.80
2019-05-11T04:33:59.894Z,7.20
2019-05-11T04:34:59.867Z,6.30
2019-05-11T04:35:59.885Z,18.60
2019-05-11T04:36:59.878Z,25.00
2019-05-11T04:37:59.900Z,63.30
2019-05-11T04:38:59.867Z,76.30
2019-05-11T04:39:59.866Z,50.70
2019-05-11T04:40:59.846Z,38.30
2019-05-11T04:41:59.885Z,31.40
2019-05-11T04:42:59.884Z,45.90
2019-05-11T04:43:59.885Z,50.60
2019-05-11T04:44:59.889Z,44.80
2019-05-11T04:45:59.888Z,53.50
2019-05-11T04:46:59.863Z,36.40
2019-05-11T04:47:59.866Z,27.10
2019-05-11T04:48:59.889Z,27.50
2019-05-11T04:49:59.904Z,28.80
2019-05-11T04:50:59.862Z,25.80
2019-05-11T04:51:59.888Z,19.10
2019-05-11T04:52:59.894Z,21.10
2019-05-11T04:53:59.872Z,15.20
2019-05-11T04:54:59.902Z,18.50
2019-05-11T04:55:59.890Z,10.90
2019-05-11T04:56:59.882Z,9.80
2019-05-11T04:57:59.870Z,7.00
2019-05-11T04:58:59.896Z,5.10
2019-05-11T04:59:59.848Z,3.30
2019-05-11T05:00:59.884Z,3.80
2019-05-11T05:01:59.901Z,2.90
2019-05-11T05:02:59.887Z,4.20
2019-05-11T05:04:13.252Z,3.60
2019-05-11T05:04:59.865Z,5.00
2019-05-11T05:06:20.890Z,5.80
2019-05-11T05:07:00.280Z,6.90
2019-05-11T05:08:09.086Z,6.30
2019-05-11T05:09:03.670Z,6.00
2019-05-11T05:09:59.893Z,8.60
2019-05-11T05:11:00.823Z,7.40
2019-05-11T05:11:59.833Z,5.10
2019-05-11T05:13:10.145Z,6.40
2019-05-11T05:14:02.106Z,6.10
2019-05-11T05:14:59.835Z,5.90
2019-05-11T05:15:59.903Z,6.00
2019-05-11T05:16:59.891Z,5.70
2019-05-11T05:17:59.844Z,4.30
2019-05-11T05:18:59.907Z,6.10
2019-05-11T05:19:59.890Z,4.20
2019-05-11T05:20:59.843Z,4.40
2019-05-11T05:21:59.904Z,4.10
2019-05-11T05:22:59.897Z,4.90
2019-05-11T05:23:59.862Z,3.40
2019-05-11T05:24:59.926Z,4.50
2019-05-11T05:25:59.906Z,4.90
2019-05-11T05:26:59.886Z,3.10
2019-05-11T05:27:59.916Z,4.20
2019-05-11T05:28:59.913Z,3.30
2019-05-11T05:29:59.922Z,3.90
2019-05-11T05:30:59.917Z,3.30
2019-05-11T05:31:59.928Z,4.70
2019-05-11T05:32:59.851Z,3.00
2019-05-11T05:34:01.483Z,4.70
2019-05-11T05:34:59.896Z,5.50
2019-05-11T05:35:59.901Z,6.10
2019-05-11T05:36:59.938Z,4.60
2019-05-11T05:37:59.945Z,4.40
2019-05-11T05:38:59.866Z,5.40
2019-05-11T05:39:59.937Z,3.80
2019-05-11T05:40:59.918Z,4.10
2019-05-11T05:41:59.882Z,5.10
2019-05-11T05:42:59.940Z,3.00
2019-05-11T05:43:59.901Z,3.00
2019-05-11T05:44:59.914Z,2.60
2019-05-11T05:45:59.931Z,4.60
2019-05-11T05:46:59.892Z,4.10
2019-05-11T05:47:59.910Z,3.20
2019-05-11T05:48:59.951Z,4.10
2019-05-11T05:49:59.912Z,3.80
2019-05-11T05:50:59.916Z,3.90
2019-05-11T05:51:59.940Z,4.50
2019-05-11T05:52:59.923Z,3.40
2019-05-11T05:53:59.914Z,4.90
2019-05-11T05:54:59.960Z,4.30
2019-05-11T05:55:59.916Z,3.70
2019-05-11T05:56:59.889Z,5.50
2019-05-11T05:57:59.930Z,5.70
2019-05-11T05:58:59.919Z,5.90
2019-05-11T05:59:59.948Z,4.10
2019-05-11T06:00:59.950Z,6.40
2019-05-11T06:01:59.912Z,5.70
2019-05-11T06:02:59.875Z,6.10
2019-05-11T06:03:59.931Z,5.20
2019-05-11T06:04:59.943Z,4.40
2019-05-11T06:05:59.951Z,3.80
2019-05-11T06:06:59.944Z,4.50
2019-05-11T06:07:59.933Z,4.80
2019-05-11T06:08:59.933Z,4.70
2019-05-11T06:09:59.902Z,3.70
2019-05-11T06:10:59.962Z,3.80
2019-05-11T06:11:59.948Z,5.20
2019-05-11T06:12:59.929Z,4.50
2019-05-11T06:13:59.939Z,4.90
2019-05-11T06:14:59.890Z,4.40
2019-05-11T06:15:59.958Z,3.90
2019-05-11T06:16:59.932Z,4.20
2019-05-11T06:18:00.714Z,6.70
2019-05-11T06:18:59.930Z,7.50
2019-05-11T06:19:59.935Z,9.40
2019-05-11T06:20:59.934Z,8.90
2019-05-11T06:21:59.973Z,6.40
2019-05-11T06:22:59.955Z,6.20
2019-05-11T06:24:06.084Z,6.00
2019-05-11T06:24:59.919Z,6.70
2019-05-11T06:25:59.966Z,3.90
2019-05-11T06:26:59.970Z,4.10
2019-05-11T06:27:59.957Z,4.90
2019-05-11T06:28:59.947Z,6.70
2019-05-11T06:29:59.938Z,5.10
2019-05-11T06:30:59.967Z,4.10
2019-05-11T06:31:59.964Z,4.60
2019-05-11T06:32:59.973Z,4.20
2019-05-11T06:33:59.966Z,5.50
2019-05-11T06:34:59.959Z,3.50
2019-05-11T06:35:59.978Z,5.20
2019-05-11T06:36:59.957Z,4.00
2019-05-11T06:37:59.973Z,4.30
2019-05-11T06:38:59.974Z,3.20
2019-05-11T06:39:59.986Z,3.30
2019-05-11T06:40:59.940Z,4.40
2019-05-11T06:41:59.950Z,2.90
2019-05-11T06:42:59.988Z,3.20
2019-05-11T06:44:02.013Z,3.70
2019-05-11T06:44:59.969Z,4.10
2019-05-11T06:46:00.067Z,2.50
2019-05-11T06:46:59.981Z,3.60
2019-05-11T06:47:59.959Z,2.60
2019-05-11T06:48:59.975Z,4.40
2019-05-11T06:49:59.971Z,2.80
2019-05-11T06:50:59.928Z,3.70
2019-05-11T06:51:59.989Z,2.50
2019-05-11T06:52:59.973Z,3.50
2019-05-11T06:53:59.942Z,3.10
2019-05-11T06:55:00.014Z,4.00
2019-05-11T06:55:59.978Z,5.20
2019-05-11T06:56:59.915Z,2.90
2019-05-11T06:57:59.947Z,3.80
2019-05-11T06:58:59.976Z,2.30
2019-05-11T06:59:59.961Z,3.50
2019-05-11T07:01:00.013Z,3.50
2019-05-11T07:01:59.965Z,2.30
2019-05-11T07:02:59.928Z,3.80
2019-05-11T07:04:00.012Z,2.10
2019-05-11T07:04:59.982Z,3.10
2019-05-11T07:05:59.940Z,4.20
2019-05-11T07:07:00.003Z,3.20
2019-05-11T07:07:59.971Z,5.20
2019-05-11T07:08:59.981Z,4.80
2019-05-11T07:09:59.988Z,5.00
2019-05-11T07:10:59.987Z,3.10
2019-05-11T07:12:00.041Z,5.10
2019-05-11T07:13:00.017Z,3.50
2019-05-11T07:13:59.986Z,4.70
2019-05-11T07:14:59.954Z,6.30
2019-05-11T07:16:00.031Z,3.80
2019-05-11T07:17:00.018Z,4.00
2019-05-11T07:18:00.038Z,2.60
2019-05-11T07:19:00.056Z,4.20
2019-05-11T07:20:00.073Z,4.10
2019-05-11T07:21:00.049Z,4.30
2019-05-11T07:22:00.093Z,7.10
2019-05-11T07:23:00.112Z,4.20
2019-05-11T07:24:00.076Z,4.30
2019-05-11T07:25:00.143Z,3.40
2019-05-11T07:26:00.429Z,4.10
2019-05-11T07:27:00.148Z,4.20
2019-05-11T07:28:00.174Z,5.10
2019-05-11T07:29:00.185Z,5.80
2019-05-11T07:30:00.205Z,4.20
2019-05-11T07:31:00.209Z,3.70
2019-05-11T07:32:06.271Z,4.60
2019-05-11T07:33:00.992Z,6.20
2019-05-11T07:34:00.220Z,3.50
2019-05-11T07:35:00.206Z,1.60
2019-05-11T07:36:00.212Z,1.50
2019-05-11T07:37:00.212Z,1.10
2019-05-11T07:38:00.202Z,1.90
2019-05-11T07:39:00.195Z,1.80
2019-05-11T07:40:00.236Z,1.80
2019-05-11T07:41:00.222Z,1.60
2019-05-11T07:42:00.187Z,2.00
2019-05-11T07:43:00.217Z,1.50
2019-05-11T07:44:00.217Z,1.60
2019-05-11T07:45:00.198Z,1.60
2019-05-11T07:46:00.206Z,2.40
2019-05-11T07:47:00.224Z,1.50
2019-05-11T07:48:00.187Z,1.70
2019-05-11T07:49:00.241Z,1.50
2019-05-11T07:50:00.205Z,1.30
2019-05-11T07:51:00.214Z,3.30
2019-05-11T07:52:00.234Z,0.60
2019-05-11T07:53:00.239Z,1.20
2019-05-11T07:54:00.235Z,1.30
2019-05-11T07:55:00.236Z,1.00
2019-05-11T07:56:00.229Z,1.70
2019-05-11T07:57:00.220Z,1.50
2019-05-11T07:58:00.239Z,0.90
2019-05-11T07:59:00.254Z,1.00
2019-05-11T08:00:00.232Z,1.30
2019-05-11T08:01:00.235Z,1.60
2019-05-11T08:02:00.205Z,0.80
2019-05-11T08:03:00.228Z,1.00
2019-05-11T08:04:00.252Z,1.20
2019-05-11T08:05:00.239Z,1.30
2019-05-11T08:06:02.748Z,1.80
2019-05-11T08:07:00.241Z,1.10
2019-05-11T08:08:00.234Z,1.50
2019-05-11T08:09:00.169Z,1.30
2019-05-11T08:10:00.254Z,2.50
2019-05-11T08:11:00.255Z,2.60
2019-05-11T08:12:00.256Z,1.40
2019-05-11T08:13:00.247Z,2.00
2019-05-11T08:14:00.246Z,2.50
2019-05-11T08:15:08.155Z,1.20
2019-05-11T08:16:00.248Z,1.10
2019-05-11T08:17:00.295Z,1.60
2019-05-11T08:18:00.215Z,0.70
2019-05-11T08:19:00.262Z,1.30
2019-05-11T08:20:00.227Z,2.20
2019-05-11T08:21:00.236Z,2.30
2019-05-11T08:22:00.257Z,1.10
2019-05-11T08:23:00.261Z,2.50
2019-05-11T08:24:00.229Z,0.70
2019-05-11T08:25:00.265Z,2.20
2019-05-11T08:26:00.229Z,1.60
2019-05-11T08:27:00.247Z,2.30
2019-05-11T08:28:00.274Z,1.10
2019-05-11T08:29:00.266Z,1.40
2019-05-11T08:30:00.263Z,1.20
2019-05-11T08:31:00.272Z,3.00
2019-05-11T08:32:00.247Z,1.20
2019-05-11T08:33:00.225Z,2.70
2019-05-11T08:34:00.263Z,0.90
2019-05-11T08:35:00.288Z,1.40
2019-05-11T08:36:00.273Z,1.70
2019-05-11T08:37:00.277Z,1.30
2019-05-11T08:38:00.256Z,2.00
2019-05-11T08:39:00.253Z,1.50
2019-05-11T08:40:00.303Z,2.20
2019-05-11T08:41:00.269Z,3.70
2019-05-11T08:42:03.201Z,2.00
2019-05-11T08:43:00.291Z,2.40
2019-05-11T08:44:00.267Z,1.40
2019-05-11T08:45:16.226Z,2.00
2019-05-11T08:46:00.290Z,1.40
2019-05-11T08:47:00.289Z,1.50
2019-05-11T08:48:00.268Z,1.40
2019-05-11T08:49:00.299Z,2.00
2019-05-11T08:50:00.247Z,1.60
2019-05-11T08:51:00.252Z,1.60
2019-05-11T08:52:00.285Z,1.00
2019-05-11T08:53:00.292Z,1.10
2019-05-11T08:54:00.262Z,2.80
2019-05-11T08:55:00.272Z,1.70
2019-05-11T08:56:00.279Z,2.30
2019-05-11T08:57:00.219Z,2.40
2019-05-11T08:58:00.314Z,1.00
2019-05-11T08:59:00.287Z,1.40
2019-05-11T09:00:00.229Z,1.10
2019-05-11T09:01:00.302Z,2.50
2019-05-11T09:02:00.279Z,1.80
2019-05-11T09:03:00.233Z,2.80
2019-05-11T09:04:00.289Z,2.10
2019-05-11T09:05:00.276Z,0.90
2019-05-11T09:06:00.280Z,1.30
2019-05-11T09:07:00.326Z,1.10
2019-05-11T09:08:00.281Z,1.30
2019-05-11T09:09:00.237Z,2.10
2019-05-11T09:10:00.291Z,2.90
2019-05-11T09:11:00.303Z,1.90
2019-05-11T09:12:00.260Z,2.20
2019-05-11T09:13:00.325Z,2.30
2019-05-11T09:14:00.308Z,2.10
2019-05-11T09:15:00.301Z,1.20
2019-05-11T09:16:00.322Z,1.90
2019-05-11T09:17:00.291Z,1.90
2019-05-11T09:18:00.255Z,1.00
2019-05-11T09:19:00.300Z,1.70
2019-05-11T09:20:00.293Z,1.40
2019-05-11T09:21:00.260Z,2.00
2019-05-11T09:22:03.130Z,1.10
2019-05-11T09:23:00.310Z,1.50
2019-05-11T09:24:00.259Z,1.30
2019-05-11T09:25:00.323Z,1.50
2019-05-11T09:26:00.316Z,1.10
2019-05-11T09:27:00.246Z,1.20
2019-05-11T09:28:00.331Z,2.00
2019-05-11T09:29:00.292Z,1.60
2019-05-11T09:30:00.303Z,1.10
2019-05-11T09:31:00.356Z,2.40
2019-05-11T09:32:00.321Z,2.00
2019-05-11T09:33:00.312Z,3.10
2019-05-11T09:34:00.324Z,1.50
2019-05-11T09:35:00.304Z,2.40
2019-05-11T09:36:00.277Z,1.30
2019-05-11T09:37:00.335Z,1.30
2019-05-11T09:38:00.313Z,1.30
2019-05-11T09:39:00.309Z,1.10
2019-05-11T09:40:00.364Z,1.00
2019-05-11T09:41:00.341Z,1.20
2019-05-11T09:42:00.322Z,2.30
2019-05-11T09:43:00.360Z,1.70
2019-05-11T09:44:00.334Z,1.40
2019-05-11T09:45:00.294Z,1.10
2019-05-11T09:46:00.338Z,1.70
2019-05-11T09:47:02.621Z,2.10
2019-05-11T09:48:00.313Z,1.90
2019-05-11T09:49:00.339Z,1.70
2019-05-11T09:50:00.336Z,1.60
2019-05-11T09:51:00.313Z,1.10
2019-05-11T09:52:00.326Z,2.40
2019-05-11T09:53:00.301Z,1.20
2019-05-11T09:54:00.293Z,1.60
2019-05-11T09:55:00.323Z,1.30
2019-05-11T09:56:00.339Z,2.40
2019-05-11T09:57:00.332Z,1.70
2019-05-11T09:58:00.355Z,2.30
2019-05-11T09:59:00.340Z,3.80
2019-05-11T10:00:00.335Z,2.10
2019-05-11T10:01:00.336Z,1.20
2019-05-11T10:02:00.315Z,1.70
2019-05-11T10:03:00.396Z,1.20
2019-05-11T10:04:00.354Z,2.10
2019-05-11T10:05:00.376Z,0.90
2019-05-11T10:06:00.373Z,1.00
2019-05-11T10:07:00.390Z,3.10
2019-05-11T10:08:00.432Z,1.30
2019-05-11T10:09:00.404Z,2.90
2019-05-11T10:10:00.454Z,1.60
2019-05-11T10:11:00.444Z,1.10
2019-05-11T10:12:00.448Z,1.30
2019-05-11T10:13:00.487Z,1.20
2019-05-11T10:14:00.530Z,1.20
2019-05-11T10:15:00.456Z,2.40
2019-05-11T10:16:06.864Z,2.70
2019-05-11T10:17:00.486Z,1.20
2019-05-11T10:18:00.506Z,2.60
2019-05-11T10:19:00.523Z,1.00
2019-05-11T10:20:00.543Z,1.30
2019-05-11T10:21:00.495Z,1.70
2019-05-11T10:22:00.528Z,2.00
2019-05-11T10:23:00.486Z,1.10
2019-05-11T10:24:00.510Z,1.30
2019-05-11T10:25:00.550Z,1.10
2019-05-11T10:26:00.533Z,1.20
2019-05-11T10:27:00.514Z,1.90
2019-05-11T10:28:00.530Z,1.80
2019-05-11T10:29:00.508Z,1.10
2019-05-11T10:30:00.494Z,1.60
2019-05-11T10:31:00.557Z,1.10
2019-05-11T10:32:00.517Z,1.50
2019-05-11T10:33:00.524Z,1.00
2019-05-11T10:34:00.553Z,1.50
2019-05-11T10:35:00.521Z,2.00
2019-05-11T10:36:03.152Z,1.60
2019-05-11T10:37:00.536Z,2.40
2019-05-11T10:38:00.534Z,3.00
2019-05-11T10:39:00.550Z,1.50
2019-05-11T10:40:00.573Z,2.90
2019-05-11T10:41:00.579Z,2.70
2019-05-11T10:42:00.636Z,1.80
2019-05-11T10:43:00.574Z,1.40
2019-05-11T10:44:00.621Z,2.20
2019-05-11T10:45:00.614Z,3.80
2019-05-11T10:46:14.856Z,1.50
2019-05-11T10:47:00.627Z,2.00
2019-05-11T10:48:01.267Z,2.80
2019-05-11T10:49:00.643Z,2.40
2019-05-11T10:50:00.648Z,2.60
2019-05-11T10:51:00.591Z,3.50
2019-05-11T10:52:00.675Z,2.80
2019-05-11T10:53:00.666Z,1.40
2019-05-11T10:54:00.640Z,4.10
2019-05-11T10:55:00.643Z,2.10
2019-05-11T10:56:00.648Z,1.90
2019-05-11T10:57:00.645Z,4.20
2019-05-11T10:58:00.691Z,1.80
2019-05-11T10:59:00.671Z,1.60
2019-05-11T11:00:00.638Z,3.10
2019-05-11T11:01:00.671Z,1.80
2019-05-11T11:02:00.664Z,2.30
2019-05-11T11:03:00.642Z,1.70
2019-05-11T11:04:00.693Z,2.50
2019-05-11T11:05:00.880Z,2.00
2019-05-11T11:06:00.647Z,2.80
2019-05-11T11:07:00.682Z,2.00
2019-05-11T11:08:00.647Z,3.60
2019-05-11T11:09:00.607Z,2.70
2019-05-11T11:10:00.691Z,1.60
2019-05-11T11:11:00.655Z,2.70
2019-05-11T11:12:00.650Z,1.80
2019-05-11T11:13:00.675Z,1.70
2019-05-11T11:14:00.627Z,1.80
2019-05-11T11:15:00.667Z,1.70
2019-05-11T11:16:02.104Z,3.60
2019-05-11T11:17:00.667Z,3.70
2019-05-11T11:18:00.612Z,2.40
2019-05-11T11:19:00.691Z,1.60
2019-05-11T11:20:00.698Z,2.00
2019-05-11T11:21:00.672Z,2.50
2019-05-11T11:22:28.561Z,2.10
2019-05-11T11:23:00.672Z,1.90
2019-05-11T11:24:00.622Z,2.90
2019-05-11T11:25:00.713Z,2.30
2019-05-11T11:26:00.673Z,1.70
2019-05-11T11:27:00.713Z,1.90
2019-05-11T11:28:00.697Z,2.10
2019-05-11T11:29:00.681Z,1.70
2019-05-11T11:30:00.686Z,3.00
2019-05-11T11:31:00.699Z,2.50
2019-05-11T11:32:00.682Z,1.90
2019-05-11T11:33:00.701Z,2.20
2019-05-11T11:34:00.707Z,1.80
2019-05-11T11:35:00.799Z,2.00
2019-05-11T11:36:00.648Z,2.30
2019-05-11T11:37:00.708Z,3.10
2019-05-11T11:38:00.702Z,2.70
2019-05-11T11:39:00.643Z,1.50
2019-05-11T11:40:00.741Z,2.10
2019-05-11T11:41:00.690Z,2.30
2019-05-11T11:42:00.678Z,2.20
2019-05-11T11:43:00.713Z,2.30
2019-05-11T11:44:00.681Z,1.70
2019-05-11T11:45:00.717Z,1.70
2019-05-11T11:46:00.737Z,2.50
2019-05-11T11:47:00.780Z,2.60
2019-05-11T11:48:00.685Z,2.70
2019-05-11T11:49:00.720Z,2.10
2019-05-11T11:50:00.744Z,2.50
2019-05-11T11:51:00.704Z,2.40
2019-05-11T11:52:00.732Z,2.30
2019-05-11T11:53:00.716Z,2.50
2019-05-11T11:54:00.698Z,3.00
2019-05-11T11:55:00.723Z,4.00
2019-05-11T11:56:00.725Z,2.80
2019-05-11T11:57:00.713Z,1.50
2019-05-11T11:58:00.742Z,2.80
2019-05-11T11:59:00.731Z,3.80
2019-05-11T12:00:00.720Z,2.30
2019-05-11T12:01:00.739Z,3.10
2019-05-11T12:02:00.726Z,2.00
2019-05-11T12:03:00.667Z,3.30
2019-05-11T12:04:00.760Z,1.80
2019-05-11T12:05:00.709Z,1.90
2019-05-11T12:06:00.679Z,2.60
2019-05-11T12:07:00.739Z,2.20
2019-05-11T12:08:00.739Z,4.30
2019-05-11T12:09:00.703Z,1.90
2019-05-11T12:10:00.744Z,2.70
2019-05-11T12:11:00.722Z,3.30
2019-05-11T12:12:00.697Z,3.20
2019-05-11T12:13:00.746Z,3.80
2019-05-11T12:14:00.756Z,2.90
2019-05-11T12:15:00.751Z,2.10
2019-05-11T12:16:00.758Z,5.20
2019-05-11T12:17:06.967Z,3.10
2019-05-11T12:18:00.695Z,3.40
2019-05-11T12:19:00.749Z,1.70
2019-05-11T12:20:00.737Z,3.00
2019-05-11T12:21:00.716Z,4.20
2019-05-11T12:22:00.780Z,3.10
2019-05-11T12:23:00.767Z,2.20
2019-05-11T12:24:00.732Z,2.40
2019-05-11T12:25:00.769Z,5.20
2019-05-11T12:26:00.728Z,2.30
2019-05-11T12:27:00.753Z,2.30
2019-05-11T12:28:00.766Z,2.30
2019-05-11T12:29:00.756Z,4.00
2019-05-11T12:30:00.705Z,2.30
2019-05-11T12:31:00.762Z,1.90
2019-05-11T12:32:00.738Z,2.20
2019-05-11T12:33:00.725Z,2.00
2019-05-11T12:34:00.767Z,2.10
2019-05-11T12:35:00.734Z,4.10
2019-05-11T12:36:00.728Z,3.30
2019-05-11T12:37:00.768Z,2.20
2019-05-11T12:38:00.778Z,2.40
2019-05-11T12:39:00.752Z,3.30
2019-05-11T12:40:00.767Z,3.20
2019-05-11T12:41:00.732Z,2.20
2019-05-11T12:42:00.713Z,2.80
2019-05-11T12:43:00.806Z,3.50
2019-05-11T12:44:00.769Z,2.20
2019-05-11T12:45:00.756Z,3.10
2019-05-11T12:46:00.779Z,1.90
2019-05-11T12:47:00.755Z,2.70
2019-05-11T12:48:00.773Z,3.60
2019-05-11T12:49:00.798Z,3.00
2019-05-11T12:50:00.757Z,3.30
2019-05-11T12:51:00.741Z,3.00
2019-05-11T12:52:00.761Z,3.20
2019-05-11T12:53:00.746Z,4.30
2019-05-11T12:54:00.770Z,3.10
2019-05-11T12:55:00.821Z,3.60
2019-05-11T12:56:00.778Z,3.20
2019-05-11T12:57:00.777Z,3.00
2019-05-11T12:58:00.801Z,1.80
2019-05-11T12:59:00.761Z,2.70
2019-05-11T13:00:00.770Z,2.90
2019-05-11T13:01:00.817Z,2.00
2019-05-11T13:02:00.791Z,2.50
2019-05-11T13:03:00.801Z,3.20
2019-05-11T13:04:00.811Z,2.20
2019-05-11T13:05:00.795Z,1.90
2019-05-11T13:06:00.791Z,3.70
2019-05-11T13:07:00.811Z,3.40
2019-05-11T13:08:00.795Z,2.90
2019-05-11T13:09:00.811Z,2.50
2019-05-11T13:10:00.804Z,3.90
2019-05-11T13:11:00.798Z,3.30
2019-05-11T13:12:00.798Z,3.50
2019-05-11T13:13:02.707Z,2.60
2019-05-11T13:14:00.801Z,3.30